Terminal Aerodrome Forecast
Issued by NWS Louisville, KY

Home | Current Version | Previous Version | Text Only | Print | Product List | Glossary On
Versions: 1 2 3 4 5 6 7 8 9 10 11 12 13 14 15 16 17
022
FTUS43 KLMK 282030 AAA
TAFSDF
TAF AMD
KSDF 282030Z 2821/2924 17012G20KT 6SM -SHRA VCTS BKN035CB
     FM290200 VRB15G35KT 3SM -TSRA BR BKN040CB
     FM290600 18011KT P6SM VCTS BKN030CB
     FM291100 19012KT P6SM BKN035
     FM291500 20013G20KT P6SM SCT035=

USA.gov is the U.S. government's official web portal to all federal, state and local government web resources and services.